sensor_id;sensor_type;location;lat;lon;timestamp;P1;durP1;ratioP1;P2;durP2;ratioP2
12840;SDS011;6487;48.626;12.486;2023-07-29T00:00:09;2.50;;;1.43;;
12840;SDS011;6487;48.626;12.486;2023-07-29T00:02:40;1.40;;;1.17;;
12840;SDS011;6487;48.626;12.486;2023-07-29T00:05:08;2.17;;;1.20;;
12840;SDS011;6487;48.626;12.486;2023-07-29T00:07:37;1.20;;;1.10;;
12840;SDS011;6487;48.626;12.486;2023-07-29T00:10:06;1.33;;;1.10;;
12840;SDS011;6487;48.626;12.486;2023-07-29T00:12:37;1.27;;;1.17;;
12840;SDS011;6487;48.626;12.486;2023-07-29T00:15:06;1.50;;;1.30;;
12840;SDS011;6487;48.626;12.486;2023-07-29T00:17:35;1.83;;;1.60;;
12840;SDS011;6487;48.626;12.486;2023-07-29T00:20:06;3.03;;;2.10;;
12840;SDS011;6487;48.626;12.486;2023-07-29T00:22:35;3.30;;;2.53;;
12840;SDS011;6487;48.626;12.486;2023-07-29T00:25:04;2.43;;;2.23;;
12840;SDS011;6487;48.626;12.486;2023-07-29T00:27:33;3.50;;;2.40;;
12840;SDS011;6487;48.626;12.486;2023-07-29T00:30:03;3.03;;;2.23;;
12840;SDS011;6487;48.626;12.486;2023-07-29T00:32:36;2.60;;;2.10;;
12840;SDS011;6487;48.626;12.486;2023-07-29T00:35:05;3.67;;;2.90;;
12840;SDS011;6487;48.626;12.486;2023-07-29T00:37:35;4.60;;;2.57;;
12840;SDS011;6487;48.626;12.486;2023-07-29T00:40:06;6.63;;;2.63;;
12840;SDS011;6487;48.626;12.486;2023-07-29T00:42:42;2.90;;;2.60;;
12840;SDS011;6487;48.626;12.486;2023-07-29T00:45:12;3.37;;;3.07;;
12840;SDS011;6487;48.626;12.486;2023-07-29T00:47:41;3.77;;;2.43;;
12840;SDS011;6487;48.626;12.486;2023-07-29T00:50:11;2.93;;;2.73;;
12840;SDS011;6487;48.626;12.486;2023-07-29T00:52:40;3.30;;;2.70;;
12840;SDS011;6487;48.626;12.486;2023-07-29T00:55:14;4.53;;;3.10;;
12840;SDS011;6487;48.626;12.486;2023-07-29T00:57:45;4.30;;;2.90;;
12840;SDS011;6487;48.626;12.486;2023-07-29T01:00:17;3.43;;;3.10;;
12840;SDS011;6487;48.626;12.486;2023-07-29T01:02:45;3.33;;;3.03;;
12840;SDS011;6487;48.626;12.486;2023-07-29T01:05:15;4.30;;;3.67;;
12840;SDS011;6487;48.626;12.486;2023-07-29T01:07:47;4.93;;;3.30;;
12840;SDS011;6487;48.626;12.486;2023-07-29T01:10:24;3.80;;;3.50;;
12840;SDS011;6487;48.626;12.486;2023-07-29T01:13:05;3.57;;;3.27;;
12840;SDS011;6487;48.626;12.486;2023-07-29T01:15:43;3.80;;;3.40;;
12840;SDS011;6487;48.626;12.486;2023-07-29T01:18:15;4.70;;;3.00;;
12840;SDS011;6487;48.626;12.486;2023-07-29T01:20:51;4.03;;;3.40;;
12840;SDS011;6487;48.626;12.486;2023-07-29T01:23:30;3.13;;;2.70;;
12840;SDS011;6487;48.626;12.486;2023-07-29T01:25:59;3.57;;;3.27;;
12840;SDS011;6487;48.626;12.486;2023-07-29T01:28:28;4.17;;;3.50;;
12840;SDS011;6487;48.626;12.486;2023-07-29T01:30:59;4.80;;;3.17;;
12840;SDS011;6487;48.626;12.486;2023-07-29T01:33:53;3.03;;;2.47;;
12840;SDS011;6487;48.626;12.486;2023-07-29T01:36:27;3.13;;;2.87;;
12840;SDS011;6487;48.626;12.486;2023-07-29T01:38:58;5.60;;;3.27;;
12840;SDS011;6487;48.626;12.486;2023-07-29T01:41:30;3.00;;;2.80;;
12840;SDS011;6487;48.626;12.486;2023-07-29T01:43:59;3.83;;;2.87;;
12840;SDS011;6487;48.626;12.486;2023-07-29T01:46:28;3.67;;;2.50;;
12840;SDS011;6487;48.626;12.486;2023-07-29T01:48:56;3.77;;;3.17;;
12840;SDS011;6487;48.626;12.486;2023-07-29T01:51:25;3.10;;;2.90;;
12840;SDS011;6487;48.626;12.486;2023-07-29T01:53:53;2.80;;;2.60;;
12840;SDS011;6487;48.626;12.486;2023-07-29T01:56:26;5.60;;;2.90;;
12840;SDS011;6487;48.626;12.486;2023-07-29T01:58:58;5.00;;;3.20;;
12840;SDS011;6487;48.626;12.486;2023-07-29T02:01:26;3.40;;;2.93;;
12840;SDS011;6487;48.626;12.486;2023-07-29T02:03:54;4.10;;;2.80;;
12840;SDS011;6487;48.626;12.486;2023-07-29T02:06:23;3.63;;;2.87;;
12840;SDS011;6487;48.626;12.486;2023-07-29T02:08:52;3.27;;;2.93;;
12840;SDS011;6487;48.626;12.486;2023-07-29T02:11:22;3.07;;;2.77;;
12840;SDS011;6487;48.626;12.486;2023-07-29T02:13:55;2.83;;;2.63;;
12840;SDS011;6487;48.626;12.486;2023-07-29T02:16:24;3.70;;;3.40;;
12840;SDS011;6487;48.626;12.486;2023-07-29T02:18:52;4.40;;;2.80;;
12840;SDS011;6487;48.626;12.486;2023-07-29T02:21:23;2.87;;;2.67;;
12840;SDS011;6487;48.626;12.486;2023-07-29T02:23:52;3.33;;;2.97;;
12840;SDS011;6487;48.626;12.486;2023-07-29T02:26:21;3.30;;;3.00;;
12840;SDS011;6487;48.626;12.486;2023-07-29T02:28:51;3.10;;;2.80;;
12840;SDS011;6487;48.626;12.486;2023-07-29T02:31:21;3.13;;;2.60;;
12840;SDS011;6487;48.626;12.486;2023-07-29T02:33:51;3.10;;;2.80;;
12840;SDS011;6487;48.626;12.486;2023-07-29T02:36:23;3.80;;;2.70;;
12840;SDS011;6487;48.626;12.486;2023-07-29T02:38:51;4.90;;;3.17;;
12840;SDS011;6487;48.626;12.486;2023-07-29T02:41:20;4.27;;;2.67;;
12840;SDS011;6487;48.626;12.486;2023-07-29T02:43:48;3.20;;;2.90;;
12840;SDS011;6487;48.626;12.486;2023-07-29T02:46:18;3.60;;;2.67;;
12840;SDS011;6487;48.626;12.486;2023-07-29T02:48:47;2.83;;;2.63;;
12840;SDS011;6487;48.626;12.486;2023-07-29T02:51:16;3.57;;;2.60;;
12840;SDS011;6487;48.626;12.486;2023-07-29T02:53:48;3.70;;;2.60;;
12840;SDS011;6487;48.626;12.486;2023-07-29T02:56:16;4.70;;;2.63;;
12840;SDS011;6487;48.626;12.486;2023-07-29T02:58:44;2.80;;;2.60;;
12840;SDS011;6487;48.626;12.486;2023-07-29T03:01:13;3.90;;;2.80;;
12840;SDS011;6487;48.626;12.486;2023-07-29T03:03:41;2.97;;;2.70;;
12840;SDS011;6487;48.626;12.486;2023-07-29T03:06:12;3.80;;;3.03;;
12840;SDS011;6487;48.626;12.486;2023-07-29T03:08:42;3.83;;;2.63;;
12840;SDS011;6487;48.626;12.486;2023-07-29T03:11:12;2.87;;;2.67;;
12840;SDS011;6487;48.626;12.486;2023-07-29T03:13:42;5.13;;;2.70;;
12840;SDS011;6487;48.626;12.486;2023-07-29T03:16:11;2.70;;;2.50;;
12840;SDS011;6487;48.626;12.486;2023-07-29T03:18:42;4.70;;;3.03;;
12840;SDS011;6487;48.626;12.486;2023-07-29T03:21:12;2.90;;;2.67;;
12840;SDS011;6487;48.626;12.486;2023-07-29T03:23:51;3.13;;;2.83;;
12840;SDS011;6487;48.626;12.486;2023-07-29T03:26:19;3.00;;;2.70;;
12840;SDS011;6487;48.626;12.486;2023-07-29T03:28:48;4.17;;;2.80;;
12840;SDS011;6487;48.626;12.486;2023-07-29T03:31:16;4.33;;;2.90;;
12840;SDS011;6487;48.626;12.486;2023-07-29T03:33:45;5.40;;;2.90;;
12840;SDS011;6487;48.626;12.486;2023-07-29T03:36:15;7.07;;;3.10;;
12840;SDS011;6487;48.626;12.486;2023-07-29T03:38:43;3.63;;;3.10;;
12840;SDS011;6487;48.626;12.486;2023-07-29T03:41:15;4.40;;;2.80;;
12840;SDS011;6487;48.626;12.486;2023-07-29T03:43:43;3.40;;;2.80;;
12840;SDS011;6487;48.626;12.486;2023-07-29T03:46:11;4.97;;;2.50;;
12840;SDS011;6487;48.626;12.486;2023-07-29T03:48:40;5.00;;;2.83;;
12840;SDS011;6487;48.626;12.486;2023-07-29T03:51:22;8.37;;;2.63;;
12840;SDS011;6487;48.626;12.486;2023-07-29T03:53:50;4.07;;;2.77;;
12840;SDS011;6487;48.626;12.486;2023-07-29T03:56:19;5.37;;;2.67;;
12840;SDS011;6487;48.626;12.486;2023-07-29T03:58:48;4.53;;;2.33;;
12840;SDS011;6487;48.626;12.486;2023-07-29T04:01:16;3.43;;;2.40;;
12840;SDS011;6487;48.626;12.486;2023-07-29T04:03:45;5.37;;;2.47;;
12840;SDS011;6487;48.626;12.486;2023-07-29T04:06:13;3.77;;;2.80;;
12840;SDS011;6487;48.626;12.486;2023-07-29T04:08:43;4.70;;;2.77;;
12840;SDS011;6487;48.626;12.486;2023-07-29T04:11:12;4.33;;;2.83;;
12840;SDS011;6487;48.626;12.486;2023-07-29T04:13:40;6.47;;;2.70;;
12840;SDS011;6487;48.626;12.486;2023-07-29T04:16:09;4.10;;;2.57;;
12840;SDS011;6487;48.626;12.486;2023-07-29T04:18:37;3.30;;;2.67;;
12840;SDS011;6487;48.626;12.486;2023-07-29T04:21:14;3.10;;;2.60;;
12840;SDS011;6487;48.626;12.486;2023-07-29T04:23:44;3.03;;;2.40;;
12840;SDS011;6487;48.626;12.486;2023-07-29T04:26:12;5.37;;;2.80;;
12840;SDS011;6487;48.626;12.486;2023-07-29T04:28:41;3.67;;;2.50;;
12840;SDS011;6487;48.626;12.486;2023-07-29T04:31:12;3.20;;;2.90;;
12840;SDS011;6487;48.626;12.486;2023-07-29T04:33:40;3.93;;;3.23;;
12840;SDS011;6487;48.626;12.486;2023-07-29T04:36:09;3.70;;;3.30;;
12840;SDS011;6487;48.626;12.486;2023-07-29T04:38:37;5.00;;;3.23;;
12840;SDS011;6487;48.626;12.486;2023-07-29T04:41:07;6.40;;;3.47;;
12840;SDS011;6487;48.626;12.486;2023-07-29T04:43:38;4.50;;;2.90;;
12840;SDS011;6487;48.626;12.486;2023-07-29T04:46:07;3.67;;;3.37;;
12840;SDS011;6487;48.626;12.486;2023-07-29T04:48:35;4.93;;;3.37;;
12840;SDS011;6487;48.626;12.486;2023-07-29T04:51:04;3.73;;;3.37;;
12840;SDS011;6487;48.626;12.486;2023-07-29T04:53:32;5.10;;;3.50;;
12840;SDS011;6487;48.626;12.486;2023-07-29T04:56:02;3.47;;;3.17;;
12840;SDS011;6487;48.626;12.486;2023-07-29T04:58:32;6.33;;;3.60;;
12840;SDS011;6487;48.626;12.486;2023-07-29T05:01:02;3.40;;;3.10;;
12840;SDS011;6487;48.626;12.486;2023-07-29T05:03:30;8.60;;;3.80;;
12840;SDS011;6487;48.626;12.486;2023-07-29T05:05:59;7.03;;;4.03;;
12840;SDS011;6487;48.626;12.486;2023-07-29T05:08:28;5.33;;;4.40;;
12840;SDS011;6487;48.626;12.486;2023-07-29T05:10:59;5.27;;;3.43;;
12840;SDS011;6487;48.626;12.486;2023-07-29T05:13:27;7.17;;;4.23;;
12840;SDS011;6487;48.626;12.486;2023-07-29T05:15:57;4.67;;;4.17;;
12840;SDS011;6487;48.626;12.486;2023-07-29T05:18:25;4.27;;;3.83;;
12840;SDS011;6487;48.626;12.486;2023-07-29T05:20:54;4.13;;;3.73;;
12840;SDS011;6487;48.626;12.486;2023-07-29T05:23:22;5.27;;;4.00;;
12840;SDS011;6487;48.626;12.486;2023-07-29T05:25:51;5.20;;;4.03;;
12840;SDS011;6487;48.626;12.486;2023-07-29T05:28:20;3.77;;;3.47;;
12840;SDS011;6487;48.626;12.486;2023-07-29T05:30:48;3.70;;;3.40;;
12840;SDS011;6487;48.626;12.486;2023-07-29T05:33:18;4.47;;;3.47;;
12840;SDS011;6487;48.626;12.486;2023-07-29T05:35:52;4.30;;;3.90;;
12840;SDS011;6487;48.626;12.486;2023-07-29T05:38:20;4.70;;;3.83;;
12840;SDS011;6487;48.626;12.486;2023-07-29T05:40:49;4.00;;;3.70;;
12840;SDS011;6487;48.626;12.486;2023-07-29T05:43:17;3.80;;;3.47;;
12840;SDS011;6487;48.626;12.486;2023-07-29T05:45:45;6.50;;;3.57;;
12840;SDS011;6487;48.626;12.486;2023-07-29T05:48:14;3.43;;;2.93;;
12840;SDS011;6487;48.626;12.486;2023-07-29T05:50:43;5.73;;;3.53;;
12840;SDS011;6487;48.626;12.486;2023-07-29T05:53:12;3.93;;;3.57;;
12840;SDS011;6487;48.626;12.486;2023-07-29T05:55:41;3.27;;;2.93;;
12840;SDS011;6487;48.626;12.486;2023-07-29T05:58:10;3.73;;;3.30;;
12840;SDS011;6487;48.626;12.486;2023-07-29T06:00:38;4.23;;;3.83;;
12840;SDS011;6487;48.626;12.486;2023-07-29T06:03:06;5.80;;;3.20;;
12840;SDS011;6487;48.626;12.486;2023-07-29T06:05:35;4.23;;;3.30;;
12840;SDS011;6487;48.626;12.486;2023-07-29T06:08:05;4.00;;;3.43;;
12840;SDS011;6487;48.626;12.486;2023-07-29T06:10:34;3.50;;;3.20;;
12840;SDS011;6487;48.626;12.486;2023-07-29T06:13:03;3.40;;;3.10;;
12840;SDS011;6487;48.626;12.486;2023-07-29T06:15:32;4.67;;;3.63;;
12840;SDS011;6487;48.626;12.486;2023-07-29T06:18:01;4.03;;;3.00;;
12840;SDS011;6487;48.626;12.486;2023-07-29T06:20:29;5.97;;;3.80;;
12840;SDS011;6487;48.626;12.486;2023-07-29T06:22:58;3.27;;;2.97;;
12840;SDS011;6487;48.626;12.486;2023-07-29T06:25:28;3.60;;;3.30;;
12840;SDS011;6487;48.626;12.486;2023-07-29T06:27:56;3.10;;;2.90;;
12840;SDS011;6487;48.626;12.486;2023-07-29T06:30:25;3.53;;;2.80;;
12840;SDS011;6487;48.626;12.486;2023-07-29T06:32:53;3.80;;;3.00;;
12840;SDS011;6487;48.626;12.486;2023-07-29T06:35:22;2.77;;;2.57;;
12840;SDS011;6487;48.626;12.486;2023-07-29T06:37:54;5.33;;;2.67;;
12840;SDS011;6487;48.626;12.486;2023-07-29T06:40:22;2.70;;;2.50;;
12840;SDS011;6487;48.626;12.486;2023-07-29T06:42:52;3.17;;;2.80;;
12840;SDS011;6487;48.626;12.486;2023-07-29T06:45:21;3.77;;;2.70;;
12840;SDS011;6487;48.626;12.486;2023-07-29T06:47:49;2.57;;;2.37;;
12840;SDS011;6487;48.626;12.486;2023-07-29T06:50:17;2.57;;;2.37;;
12840;SDS011;6487;48.626;12.486;2023-07-29T06:52:48;2.70;;;2.50;;
12840;SDS011;6487;48.626;12.486;2023-07-29T06:55:17;2.43;;;2.20;;
12840;SDS011;6487;48.626;12.486;2023-07-29T06:57:45;3.33;;;2.50;;
12840;SDS011;6487;48.626;12.486;2023-07-29T07:00:15;2.33;;;2.13;;
12840;SDS011;6487;48.626;12.486;2023-07-29T07:02:44;2.30;;;2.10;;
12840;SDS011;6487;48.626;12.486;2023-07-29T07:05:12;2.40;;;2.20;;
12840;SDS011;6487;48.626;12.486;2023-07-29T07:07:41;3.40;;;2.53;;
12840;SDS011;6487;48.626;12.486;2023-07-29T07:10:09;2.60;;;2.40;;
12840;SDS011;6487;48.626;12.486;2023-07-29T07:12:41;3.50;;;2.43;;
12840;SDS011;6487;48.626;12.486;2023-07-29T07:15:12;2.53;;;2.33;;
12840;SDS011;6487;48.626;12.486;2023-07-29T07:17:42;2.40;;;2.20;;
12840;SDS011;6487;48.626;12.486;2023-07-29T07:20:11;2.40;;;2.20;;
12840;SDS011;6487;48.626;12.486;2023-07-29T07:22:39;3.10;;;2.17;;
12840;SDS011;6487;48.626;12.486;2023-07-29T07:25:08;2.10;;;2.00;;
12840;SDS011;6487;48.626;12.486;2023-07-29T07:27:36;2.63;;;2.43;;
12840;SDS011;6487;48.626;12.486;2023-07-29T07:30:05;1.97;;;1.77;;
12840;SDS011;6487;48.626;12.486;2023-07-29T07:32:35;2.20;;;2.00;;
12840;SDS011;6487;48.626;12.486;2023-07-29T07:35:06;2.37;;;2.17;;
12840;SDS011;6487;48.626;12.486;2023-07-29T07:37:37;4.57;;;2.23;;
12840;SDS011;6487;48.626;12.486;2023-07-29T07:40:06;3.57;;;2.20;;
12840;SDS011;6487;48.626;12.486;2023-07-29T07:42:36;2.47;;;2.27;;
12840;SDS011;6487;48.626;12.486;2023-07-29T07:45:05;2.80;;;2.60;;
12840;SDS011;6487;48.626;12.486;2023-07-29T07:47:34;2.37;;;2.17;;
12840;SDS011;6487;48.626;12.486;2023-07-29T07:50:07;2.23;;;2.03;;
12840;SDS011;6487;48.626;12.486;2023-07-29T07:52:36;2.33;;;2.00;;
12840;SDS011;6487;48.626;12.486;2023-07-29T07:55:05;2.27;;;1.87;;
12840;SDS011;6487;48.626;12.486;2023-07-29T07:57:37;2.57;;;2.37;;
12840;SDS011;6487;48.626;12.486;2023-07-29T08:00:06;4.67;;;2.63;;
12840;SDS011;6487;48.626;12.486;2023-07-29T08:02:37;2.10;;;2.00;;
12840;SDS011;6487;48.626;12.486;2023-07-29T08:05:07;2.27;;;2.07;;
12840;SDS011;6487;48.626;12.486;2023-07-29T08:07:36;1.90;;;1.80;;
12840;SDS011;6487;48.626;12.486;2023-07-29T08:10:06;2.17;;;1.70;;
12840;SDS011;6487;48.626;12.486;2023-07-29T08:12:35;2.20;;;2.00;;
12840;SDS011;6487;48.626;12.486;2023-07-29T08:15:04;3.13;;;2.10;;
12840;SDS011;6487;48.626;12.486;2023-07-29T08:17:34;2.00;;;1.87;;
12840;SDS011;6487;48.626;12.486;2023-07-29T08:20:03;3.00;;;1.90;;
12840;SDS011;6487;48.626;12.486;2023-07-29T08:22:38;4.67;;;2.13;;
12840;SDS011;6487;48.626;12.486;2023-07-29T08:25:07;2.13;;;1.90;;
12840;SDS011;6487;48.626;12.486;2023-07-29T08:27:36;1.97;;;1.87;;
12840;SDS011;6487;48.626;12.486;2023-07-29T08:30:05;2.53;;;2.33;;
12840;SDS011;6487;48.626;12.486;2023-07-29T08:32:35;2.30;;;2.10;;
12840;SDS011;6487;48.626;12.486;2023-07-29T08:35:04;1.93;;;1.73;;
12840;SDS011;6487;48.626;12.486;2023-07-29T08:37:34;3.70;;;2.90;;
12840;SDS011;6487;48.626;12.486;2023-07-29T08:40:03;3.90;;;2.10;;
12840;SDS011;6487;48.626;12.486;2023-07-29T08:42:33;2.60;;;2.40;;
12840;SDS011;6487;48.626;12.486;2023-07-29T08:45:06;5.53;;;2.10;;
12840;SDS011;6487;48.626;12.486;2023-07-29T08:47:35;2.07;;;1.87;;
12840;SDS011;6487;48.626;12.486;2023-07-29T08:50:04;2.73;;;2.00;;
12840;SDS011;6487;48.626;12.486;2023-07-29T08:52:36;3.47;;;2.03;;
12840;SDS011;6487;48.626;12.486;2023-07-29T08:55:05;2.20;;;2.00;;
12840;SDS011;6487;48.626;12.486;2023-07-29T08:57:34;5.03;;;2.43;;
12840;SDS011;6487;48.626;12.486;2023-07-29T09:00:04;2.83;;;2.27;;
12840;SDS011;6487;48.626;12.486;2023-07-29T09:02:34;2.50;;;2.20;;
12840;SDS011;6487;48.626;12.486;2023-07-29T09:05:04;4.50;;;1.90;;
12840;SDS011;6487;48.626;12.486;2023-07-29T09:07:33;2.20;;;2.00;;
12840;SDS011;6487;48.626;12.486;2023-07-29T09:10:04;2.93;;;2.10;;
12840;SDS011;6487;48.626;12.486;2023-07-29T09:12:36;3.20;;;1.97;;
12840;SDS011;6487;48.626;12.486;2023-07-29T09:15:05;2.23;;;2.03;;
12840;SDS011;6487;48.626;12.486;2023-07-29T09:17:35;2.27;;;2.07;;
12840;SDS011;6487;48.626;12.486;2023-07-29T09:20:07;2.10;;;1.90;;
12840;SDS011;6487;48.626;12.486;2023-07-29T09:22:39;2.63;;;2.20;;
12840;SDS011;6487;48.626;12.486;2023-07-29T09:25:12;2.17;;;2.03;;
12840;SDS011;6487;48.626;12.486;2023-07-29T09:27:42;3.67;;;2.47;;
12840;SDS011;6487;48.626;12.486;2023-07-29T09:30:15;2.30;;;2.10;;
12840;SDS011;6487;48.626;12.486;2023-07-29T09:32:44;2.73;;;2.00;;
12840;SDS011;6487;48.626;12.486;2023-07-29T09:35:12;2.07;;;1.93;;
12840;SDS011;6487;48.626;12.486;2023-07-29T09:37:43;2.00;;;1.80;;
12840;SDS011;6487;48.626;12.486;2023-07-29T09:40:13;2.97;;;2.37;;
12840;SDS011;6487;48.626;12.486;2023-07-29T09:42:47;2.90;;;2.13;;
12840;SDS011;6487;48.626;12.486;2023-07-29T09:45:21;5.63;;;2.03;;
12840;SDS011;6487;48.626;12.486;2023-07-29T09:47:51;4.77;;;2.13;;
12840;SDS011;6487;48.626;12.486;2023-07-29T09:50:23;2.43;;;2.13;;
12840;SDS011;6487;48.626;12.486;2023-07-29T09:52:54;2.50;;;2.20;;
12840;SDS011;6487;48.626;12.486;2023-07-29T09:55:26;2.60;;;2.40;;
12840;SDS011;6487;48.626;12.486;2023-07-29T09:57:56;2.90;;;2.40;;
12840;SDS011;6487;48.626;12.486;2023-07-29T10:00:28;3.20;;;2.23;;
12840;SDS011;6487;48.626;12.486;2023-07-29T10:02:58;2.20;;;2.00;;
12840;SDS011;6487;48.626;12.486;2023-07-29T10:05:29;4.10;;;2.37;;
12840;SDS011;6487;48.626;12.486;2023-07-29T10:07:59;3.43;;;2.10;;
12840;SDS011;6487;48.626;12.486;2023-07-29T10:10:29;3.67;;;2.27;;
12840;SDS011;6487;48.626;12.486;2023-07-29T10:13:04;3.90;;;2.37;;
12840;SDS011;6487;48.626;12.486;2023-07-29T10:15:33;4.13;;;2.60;;
12840;SDS011;6487;48.626;12.486;2023-07-29T10:18:02;2.43;;;2.23;;
12840;SDS011;6487;48.626;12.486;2023-07-29T10:20:31;2.87;;;2.03;;
12840;SDS011;6487;48.626;12.486;2023-07-29T10:23:03;2.40;;;2.10;;
12840;SDS011;6487;48.626;12.486;2023-07-29T10:25:37;2.80;;;2.50;;
12840;SDS011;6487;48.626;12.486;2023-07-29T10:28:08;2.97;;;2.70;;
12840;SDS011;6487;48.626;12.486;2023-07-29T10:30:39;3.43;;;2.03;;
12840;SDS011;6487;48.626;12.486;2023-07-29T10:33:09;2.93;;;2.47;;
12840;SDS011;6487;48.626;12.486;2023-07-29T10:35:38;2.90;;;2.50;;
12840;SDS011;6487;48.626;12.486;2023-07-29T10:38:09;2.88;;;2.65;;
12840;SDS011;6487;48.626;12.486;2023-07-29T10:40:45;2.80;;;2.60;;
12840;SDS011;6487;48.626;12.486;2023-07-29T10:43:18;2.80;;;2.60;;
12840;SDS011;6487;48.626;12.486;2023-07-29T10:45:52;3.00;;;2.80;;
12840;SDS011;6487;48.626;12.486;2023-07-29T10:48:41;3.00;;;2.70;;
12840;SDS011;6487;48.626;12.486;2023-07-29T10:51:24;2.73;;;2.53;;
12840;SDS011;6487;48.626;12.486;2023-07-29T10:53:57;2.80;;;2.60;;
12840;SDS011;6487;48.626;12.486;2023-07-29T10:56:29;5.97;;;3.30;;
12840;SDS011;6487;48.626;12.486;2023-07-29T10:59:00;2.53;;;2.33;;
12840;SDS011;6487;48.626;12.486;2023-07-29T11:01:58;2.73;;;2.53;;
12840;SDS011;6487;48.626;12.486;2023-07-29T11:04:29;2.63;;;2.43;;
12840;SDS011;6487;48.626;12.486;2023-07-29T11:10:00;3.03;;;2.70;;
12840;SDS011;6487;48.626;12.486;2023-07-29T11:12:34;2.87;;;2.67;;
12840;SDS011;6487;48.626;12.486;2023-07-29T11:15:12;4.63;;;2.83;;
12840;SDS011;6487;48.626;12.486;2023-07-29T11:17:52;2.67;;;2.47;;
12840;SDS011;6487;48.626;12.486;2023-07-29T11:20:23;4.37;;;2.70;;
12840;SDS011;6487;48.626;12.486;2023-07-29T11:22:53;4.00;;;2.87;;
12840;SDS011;6487;48.626;12.486;2023-07-29T11:25:27;3.00;;;2.57;;
12840;SDS011;6487;48.626;12.486;2023-07-29T11:27:58;5.03;;;2.60;;
12840;SDS011;6487;48.626;12.486;2023-07-29T11:30:32;3.43;;;2.63;;
12840;SDS011;6487;48.626;12.486;2023-07-29T11:33:01;2.93;;;2.70;;
12840;SDS011;6487;48.626;12.486;2023-07-29T11:35:36;2.77;;;2.50;;
12840;SDS011;6487;48.626;12.486;2023-07-29T11:38:06;3.30;;;2.67;;
12840;SDS011;6487;48.626;12.486;2023-07-29T11:40:36;2.40;;;2.20;;
12840;SDS011;6487;48.626;12.486;2023-07-29T11:43:04;3.07;;;2.47;;
12840;SDS011;6487;48.626;12.486;2023-07-29T11:45:33;2.67;;;2.20;;
12840;SDS011;6487;48.626;12.486;2023-07-29T11:48:15;3.63;;;2.40;;
12840;SDS011;6487;48.626;12.486;2023-07-29T11:50:44;3.43;;;3.13;;
12840;SDS011;6487;48.626;12.486;2023-07-29T11:53:13;3.10;;;2.90;;
12840;SDS011;6487;48.626;12.486;2023-07-29T11:55:44;4.37;;;2.97;;
12840;SDS011;6487;48.626;12.486;2023-07-29T11:58:18;2.80;;;2.60;;
12840;SDS011;6487;48.626;12.486;2023-07-29T12:00:46;2.70;;;2.50;;
12840;SDS011;6487;48.626;12.486;2023-07-29T12:03:16;3.57;;;2.43;;
12840;SDS011;6487;48.626;12.486;2023-07-29T12:05:45;3.87;;;2.60;;
12840;SDS011;6487;48.626;12.486;2023-07-29T12:08:15;2.80;;;2.50;;
12840;SDS011;6487;48.626;12.486;2023-07-29T12:10:45;3.30;;;2.90;;
12840;SDS011;6487;48.626;12.486;2023-07-29T12:13:14;4.83;;;3.00;;
12840;SDS011;6487;48.626;12.486;2023-07-29T12:15:43;3.33;;;3.03;;
12840;SDS011;6487;48.626;12.486;2023-07-29T12:18:11;2.93;;;2.63;;
12840;SDS011;6487;48.626;12.486;2023-07-29T12:20:41;3.20;;;2.90;;
12840;SDS011;6487;48.626;12.486;2023-07-29T12:23:11;3.57;;;3.27;;
12840;SDS011;6487;48.626;12.486;2023-07-29T12:25:40;3.60;;;3.00;;
12840;SDS011;6487;48.626;12.486;2023-07-29T12:28:10;3.53;;;3.00;;
12840;SDS011;6487;48.626;12.486;2023-07-29T12:30:41;2.60;;;2.40;;
12840;SDS011;6487;48.626;12.486;2023-07-29T12:33:09;3.50;;;2.80;;
12840;SDS011;6487;48.626;12.486;2023-07-29T12:35:38;2.93;;;2.73;;
12840;SDS011;6487;48.626;12.486;2023-07-29T12:38:06;2.97;;;2.50;;
12840;SDS011;6487;48.626;12.486;2023-07-29T12:40:37;3.07;;;2.40;;
12840;SDS011;6487;48.626;12.486;2023-07-29T12:43:09;2.77;;;2.57;;
12840;SDS011;6487;48.626;12.486;2023-07-29T12:45:38;4.57;;;2.50;;
12840;SDS011;6487;48.626;12.486;2023-07-29T12:48:08;2.60;;;2.10;;
12840;SDS011;6487;48.626;12.486;2023-07-29T12:50:36;2.73;;;2.53;;
12840;SDS011;6487;48.626;12.486;2023-07-29T12:53:06;2.80;;;2.60;;
12840;SDS011;6487;48.626;12.486;2023-07-29T12:55:36;2.40;;;2.20;;
12840;SDS011;6487;48.626;12.486;2023-07-29T12:58:19;2.60;;;2.40;;
12840;SDS011;6487;48.626;12.486;2023-07-29T13:00:47;2.83;;;2.37;;
12840;SDS011;6487;48.626;12.486;2023-07-29T13:03:16;2.77;;;2.30;;
12840;SDS011;6487;48.626;12.486;2023-07-29T13:05:44;2.60;;;2.40;;
12840;SDS011;6487;48.626;12.486;2023-07-29T13:08:13;2.40;;;2.20;;
12840;SDS011;6487;48.626;12.486;2023-07-29T13:10:42;2.55;;;2.35;;
12840;SDS011;6487;48.626;12.486;2023-07-29T13:13:12;2.60;;;2.40;;
12840;SDS011;6487;48.626;12.486;2023-07-29T13:15:41;3.85;;;2.55;;
12840;SDS011;6487;48.626;12.486;2023-07-29T13:18:09;5.60;;;2.45;;
12840;SDS011;6487;48.626;12.486;2023-07-29T13:20:38;2.60;;;2.40;;
12840;SDS011;6487;48.626;12.486;2023-07-29T13:23:07;3.08;;;2.45;;
12840;SDS011;6487;48.626;12.486;2023-07-29T13:25:35;2.50;;;2.30;;
12840;SDS011;6487;48.626;12.486;2023-07-29T13:28:04;2.88;;;2.58;;
12840;SDS011;6487;48.626;12.486;2023-07-29T13:30:35;2.95;;;2.60;;
12840;SDS011;6487;48.626;12.486;2023-07-29T13:33:03;2.63;;;2.17;;
12840;SDS011;6487;48.626;12.486;2023-07-29T13:35:33;2.60;;;2.13;;
12840;SDS011;6487;48.626;12.486;2023-07-29T13:38:02;3.13;;;2.40;;
12840;SDS011;6487;48.626;12.486;2023-07-29T13:40:31;2.55;;;2.35;;
12840;SDS011;6487;48.626;12.486;2023-07-29T13:43:03;2.63;;;2.42;;
12840;SDS011;6487;48.626;12.486;2023-07-29T13:45:39;2.83;;;2.63;;
12840;SDS011;6487;48.626;12.486;2023-07-29T13:48:07;3.25;;;2.42;;
12840;SDS011;6487;48.626;12.486;2023-07-29T13:50:36;2.35;;;2.15;;
12840;SDS011;6487;48.626;12.486;2023-07-29T13:53:05;2.80;;;2.47;;
12840;SDS011;6487;48.626;12.486;2023-07-29T13:55:33;2.53;;;2.33;;
12840;SDS011;6487;48.626;12.486;2023-07-29T13:58:02;3.00;;;2.28;;
12840;SDS011;6487;48.626;12.486;2023-07-29T14:00:34;2.60;;;2.40;;
12840;SDS011;6487;48.626;12.486;2023-07-29T14:03:04;2.70;;;2.17;;
12840;SDS011;6487;48.626;12.486;2023-07-29T14:05:32;2.10;;;2.00;;
12840;SDS011;6487;48.626;12.486;2023-07-29T14:08:04;2.35;;;2.00;;
12840;SDS011;6487;48.626;12.486;2023-07-29T14:10:32;2.33;;;2.13;;
12840;SDS011;6487;48.626;12.486;2023-07-29T14:13:01;2.55;;;2.35;;
12840;SDS011;6487;48.626;12.486;2023-07-29T14:15:29;3.05;;;2.08;;
12840;SDS011;6487;48.626;12.486;2023-07-29T14:17:59;2.47;;;1.73;;
12840;SDS011;6487;48.626;12.486;2023-07-29T14:20:30;1.90;;;1.80;;
12840;SDS011;6487;48.626;12.486;2023-07-29T14:22:59;1.88;;;1.75;;
12840;SDS011;6487;48.626;12.486;2023-07-29T14:25:32;2.35;;;1.88;;
12840;SDS011;6487;48.626;12.486;2023-07-29T14:28:01;2.38;;;1.83;;
12840;SDS011;6487;48.626;12.486;2023-07-29T14:30:30;1.80;;;1.70;;
12840;SDS011;6487;48.626;12.486;2023-07-29T14:32:59;1.73;;;1.63;;
12840;SDS011;6487;48.626;12.486;2023-07-29T14:35:28;1.65;;;1.55;;
12840;SDS011;6487;48.626;12.486;2023-07-29T14:37:57;3.22;;;2.15;;
12840;SDS011;6487;48.626;12.486;2023-07-29T14:40:26;1.95;;;1.73;;
12840;SDS011;6487;48.626;12.486;2023-07-29T14:42:55;1.90;;;1.80;;
12840;SDS011;6487;48.626;12.486;2023-07-29T14:45:23;3.00;;;2.58;;
12840;SDS011;6487;48.626;12.486;2023-07-29T14:47:52;2.20;;;2.05;;
12840;SDS011;6487;48.626;12.486;2023-07-29T14:50:26;3.00;;;2.35;;
12840;SDS011;6487;48.626;12.486;2023-07-29T14:52:57;2.15;;;2.05;;
12840;SDS011;6487;48.626;12.486;2023-07-29T14:55:25;2.08;;;1.90;;
12840;SDS011;6487;48.626;12.486;2023-07-29T14:57:54;2.20;;;2.00;;
12840;SDS011;6487;48.626;12.486;2023-07-29T15:00:22;3.35;;;1.85;;
12840;SDS011;6487;48.626;12.486;2023-07-29T15:02:51;2.28;;;1.77;;
12840;SDS011;6487;48.626;12.486;2023-07-29T15:05:20;2.05;;;1.85;;
12840;SDS011;6487;48.626;12.486;2023-07-29T15:07:51;2.28;;;2.08;;